ROLR17 YMES-YMES
Flight info
| Callsign | ROLR17 |
|---|---|
| Flight time | 0h 16m |
| Altitude | 5000 |
| Route | CCT |
| Aircraft | PC21/L-SDE3FGHIRWY/LB1 |
Departure
| Time | 2026-05-05 12:16 |
|---|---|
| Airport | RAAF Base East Sale (YMES) |
Arrival
| Time | 2026-05-05 12:32 |
|---|---|
| Airport | RAAF Base East Sale (YMES) |
| Time | Latitude | Longitude | Altitude | Speed | Heading |
|---|---|---|---|---|---|
| 2026-05-05 12:02 | -38.09903 | 147.13612 | 26 ft | 0 kts | 188° |
| 2026-05-05 12:10 | -38.09925 | 147.13617 | 27 ft | 5 kts | 101° |
| 2026-05-05 12:10 | -38.09933 | 147.13687 | 26 ft | 13 kts | 99° |
| 2026-05-05 12:10 | -38.09948 | 147.13802 | 26 ft | 13 kts | 99° |
| 2026-05-05 12:10 | -38.09955 | 147.13886 | 26 ft | 6 kts | 53° |
| 2026-05-05 12:11 | -38.09926 | 147.13896 | 27 ft | 6 kts | 12° |
| 2026-05-05 12:11 | -38.09914 | 147.13931 | 28 ft | 8 kts | 100° |
| 2026-05-05 12:11 | -38.09923 | 147.14008 | 27 ft | 5 kts | 86° |
| 2026-05-05 12:11 | -38.09887 | 147.14036 | 28 ft | 7 kts | 9° |
| 2026-05-05 12:12 | -38.09851 | 147.14066 | 28 ft | 6 kts | 92° |
| 2026-05-05 12:12 | -38.09864 | 147.14175 | 25 ft | 17 kts | 99° |
| 2026-05-05 12:12 | -38.09883 | 147.14324 | 24 ft | 17 kts | 99° |
| 2026-05-05 12:12 | -38.09901 | 147.14470 | 23 ft | 16 kts | 98° |
| 2026-05-05 12:13 | -38.09918 | 147.14608 | 20 ft | 17 kts | 99° |
| 2026-05-05 12:13 | -38.09936 | 147.14757 | 18 ft | 17 kts | 98° |
| 2026-05-05 12:13 | -38.09954 | 147.14899 | 20 ft | 16 kts | 99° |
| 2026-05-05 12:13 | -38.09969 | 147.15028 | 21 ft | 14 kts | 99° |
| 2026-05-05 12:14 | -38.09984 | 147.15145 | 23 ft | 12 kts | 99° |
| 2026-05-05 12:14 | -38.09992 | 147.15244 | 24 ft | 10 kts | 78° |
| 2026-05-05 12:14 | -38.09970 | 147.15294 | 25 ft | 1 kts | 45° |
| 2026-05-05 12:14 | -38.09961 | 147.15303 | 26 ft | 8 kts | 36° |
| 2026-05-05 12:15 | -38.09926 | 147.15323 | 25 ft | 8 kts | 12° |
| 2026-05-05 12:15 | -38.09870 | 147.15275 | 23 ft | 7 kts | 279° |
| 2026-05-05 12:15 | -38.09860 | 147.15190 | 22 ft | 33 kts | 278° |
| 2026-05-05 12:15 | -38.09814 | 147.14831 | 19 ft | 92 kts | 279° |
| 2026-05-05 12:16 | -38.09686 | 147.13802 | 304 ft | 135 kts | 278° |
| 2026-05-05 12:16 | -38.09473 | 147.12133 | 1011 ft | 154 kts | 279° |
| 2026-05-05 12:16 | -38.09306 | 147.11259 | 1273 ft | 155 kts | 297° |
| 2026-05-05 12:16 | -38.08285 | 147.10810 | 1448 ft | 194 kts | 17° |
| 2026-05-05 12:17 | -38.07486 | 147.12250 | 1458 ft | 225 kts | 89° |
| 2026-05-05 12:17 | -38.07690 | 147.14141 | 1427 ft | 208 kts | 99° |
| 2026-05-05 12:17 | -38.07922 | 147.15892 | 1217 ft | 195 kts | 100° |
| 2026-05-05 12:17 | -38.08212 | 147.17499 | 1123 ft | 182 kts | 127° |
| 2026-05-05 12:18 | -38.09160 | 147.17913 | 981 ft | 135 kts | 206° |
| 2026-05-05 12:18 | -38.09792 | 147.17159 | 592 ft | 123 kts | 246° |
| 2026-05-05 12:18 | -38.09955 | 147.16145 | 230 ft | 117 kts | 274° |
| 2026-05-05 12:18 | -38.09847 | 147.15111 | 32 ft | 115 kts | 278° |
| 2026-05-05 12:19 | -38.09739 | 147.14242 | 28 ft | 98 kts | 278° |
| 2026-05-05 12:19 | -38.09614 | 147.13253 | 447 ft | 131 kts | 279° |
| 2026-05-05 12:19 | -38.09449 | 147.12032 | 1060 ft | 140 kts | 282° |
| 2026-05-05 12:19 | -38.08693 | 147.11235 | 1177 ft | 178 kts | 356° |
| 2026-05-05 12:20 | -38.07625 | 147.12205 | 1115 ft | 220 kts | 70° |
| 2026-05-05 12:20 | -38.07667 | 147.14192 | 1076 ft | 231 kts | 98° |
| 2026-05-05 12:20 | -38.07898 | 147.16193 | 1080 ft | 219 kts | 99° |
| 2026-05-05 12:20 | -38.08185 | 147.17951 | 1057 ft | 200 kts | 121° |
| 2026-05-05 12:21 | -38.09220 | 147.18447 | 1037 ft | 145 kts | 206° |
| 2026-05-05 12:21 | -38.09867 | 147.17650 | 701 ft | 127 kts | 248° |
| 2026-05-05 12:21 | -38.10002 | 147.16569 | 349 ft | 121 kts | 273° |
| 2026-05-05 12:21 | -38.09894 | 147.15503 | 100 ft | 120 kts | 278° |
| 2026-05-05 12:22 | -38.09774 | 147.14532 | 21 ft | 95 kts | 278° |
| 2026-05-05 12:22 | -38.09668 | 147.13665 | 207 ft | 112 kts | 278° |
| 2026-05-05 12:22 | -38.09543 | 147.12558 | 764 ft | 138 kts | 277° |
| 2026-05-05 12:22 | -38.09259 | 147.11340 | 1034 ft | 162 kts | 315° |
| 2026-05-05 12:23 | -38.08117 | 147.11431 | 1030 ft | 200 kts | 39° |
| 2026-05-05 12:23 | -38.07572 | 147.13111 | 1058 ft | 222 kts | 92° |
| 2026-05-05 12:23 | -38.07766 | 147.15037 | 1041 ft | 211 kts | 99° |
| 2026-05-05 12:23 | -38.07974 | 147.16799 | 1042 ft | 196 kts | 99° |
| 2026-05-05 12:24 | -38.08381 | 147.18383 | 1115 ft | 177 kts | 141° |
| 2026-05-05 12:24 | -38.09325 | 147.18627 | 1052 ft | 128 kts | 206° |
| 2026-05-05 12:24 | -38.09954 | 147.17937 | 725 ft | 118 kts | 246° |
| 2026-05-05 12:24 | -38.10061 | 147.16916 | 371 ft | 116 kts | 276° |
| 2026-05-05 12:25 | -38.09947 | 147.15924 | 162 ft | 114 kts | 278° |
| 2026-05-05 12:25 | -38.09824 | 147.14919 | 27 ft | 109 kts | 278° |
| 2026-05-05 12:25 | -38.09721 | 147.14086 | 37 ft | 100 kts | 279° |
| 2026-05-05 12:25 | -38.09609 | 147.13120 | 513 ft | 126 kts | 277° |
| 2026-05-05 12:26 | -38.09463 | 147.11894 | 1089 ft | 141 kts | 281° |
| 2026-05-05 12:26 | -38.08787 | 147.10986 | 1209 ft | 167 kts | 346° |
| 2026-05-05 12:26 | -38.07684 | 147.11650 | 1088 ft | 201 kts | 56° |
| 2026-05-05 12:26 | -38.07570 | 147.13402 | 1030 ft | 205 kts | 99° |
| 2026-05-05 12:27 | -38.07787 | 147.15166 | 1013 ft | 199 kts | 100° |
| 2026-05-05 12:27 | -38.08014 | 147.16872 | 1002 ft | 191 kts | 100° |
| 2026-05-05 12:27 | -38.08506 | 147.18305 | 947 ft | 167 kts | 153° |
| 2026-05-05 12:27 | -38.09439 | 147.18261 | 866 ft | 124 kts | 216° |
| 2026-05-05 12:28 | -38.09957 | 147.17449 | 532 ft | 120 kts | 252° |
| 2026-05-05 12:28 | -38.09996 | 147.16380 | 242 ft | 124 kts | 278° |
| 2026-05-05 12:28 | -38.09871 | 147.15313 | 61 ft | 120 kts | 278° |
| 2026-05-05 12:28 | -38.09757 | 147.14380 | 23 ft | 92 kts | 279° |
| 2026-05-05 12:29 | -38.09641 | 147.13456 | 344 ft | 119 kts | 278° |
| 2026-05-05 12:29 | -38.09503 | 147.12265 | 914 ft | 142 kts | 277° |
| 2026-05-05 12:29 | -38.09033 | 147.11210 | 1225 ft | 161 kts | 336° |
| 2026-05-05 12:29 | -38.07852 | 147.11547 | 1139 ft | 198 kts | 38° |
| 2026-05-05 12:30 | -38.07527 | 147.13201 | 1164 ft | 208 kts | 99° |
| 2026-05-05 12:30 | -38.07748 | 147.15021 | 1166 ft | 206 kts | 99° |
| 2026-05-05 12:30 | -38.07960 | 147.16811 | 1161 ft | 202 kts | 99° |
| 2026-05-05 12:30 | -38.08536 | 147.18174 | 1209 ft | 157 kts | 164° |
| 2026-05-05 12:31 | -38.09440 | 147.18078 | 1042 ft | 126 kts | 216° |
| 2026-05-05 12:31 | -38.09969 | 147.17248 | 697 ft | 119 kts | 255° |
| 2026-05-05 12:31 | -38.09982 | 147.16213 | 246 ft | 118 kts | 278° |
| 2026-05-05 12:31 | -38.09856 | 147.15174 | 45 ft | 119 kts | 278° |
| 2026-05-05 12:32 | -38.09746 | 147.14281 | 25 ft | 68 kts | 278° |
| 2026-05-05 12:32 | -38.09745 | 147.14068 | 27 ft | 11 kts | 206° |
| 2026-05-05 12:32 | -38.09824 | 147.14049 | 28 ft | 11 kts | 188° |
| 2026-05-05 12:32 | -38.09900 | 147.14034 | 28 ft | 11 kts | 191° |
| 2026-05-05 12:33 | -38.09920 | 147.13979 | 28 ft | 8 kts | 278° |
| 2026-05-05 12:33 | -38.09910 | 147.13901 | 28 ft | 9 kts | 278° |
| 2026-05-05 12:33 | -38.09900 | 147.13816 | 27 ft | 11 kts | 278° |
| 2026-05-05 12:33 | -38.09888 | 147.13721 | 26 ft | 11 kts | 279° |
| 2026-05-05 12:34 | -38.09877 | 147.13637 | 26 ft | 7 kts | 279° |
| 2026-05-05 12:34 | -38.09883 | 147.13616 | 26 ft | 2 kts | 188° |
| 2026-05-05 12:34 | -38.09900 | 147.13613 | 28 ft | 0 kts | 189° |
| 2026-05-05 12:34 | -38.09902 | 147.13612 | 28 ft | 0 kts | 189° |